createdAt,value
2023-02-27T00:00:19.917Z,95824
2023-02-27T00:01:19.923Z,95824
2023-02-27T00:02:19.978Z,95839
2023-02-27T00:03:19.918Z,95829
2023-02-27T00:04:19.957Z,95834
2023-02-27T00:05:19.966Z,95834
2023-02-27T00:07:19.961Z,95829
2023-02-27T00:08:19.918Z,95834
2023-02-27T00:09:19.971Z,95834
2023-02-27T00:10:19.995Z,95834
2023-02-27T00:11:19.969Z,95828
2023-02-27T00:12:19.931Z,95828
2023-02-27T00:13:19.952Z,95830
2023-02-27T00:14:19.981Z,95826
2023-02-27T00:15:19.954Z,95826
2023-02-27T00:16:20.008Z,95827
2023-02-27T00:17:19.959Z,95827
2023-02-27T00:18:19.974Z,95823
2023-02-27T00:19:20.042Z,95817
2023-02-27T00:20:20.012Z,95834
2023-02-27T00:21:19.966Z,95813
2023-02-27T00:22:19.970Z,95813
2023-02-27T00:23:20.005Z,95820
2023-02-27T00:24:20.011Z,95826
2023-02-27T00:25:19.972Z,95826
2023-02-27T00:26:19.984Z,95835
2023-02-27T00:27:19.979Z,95819
2023-02-27T00:28:20.042Z,95809
2023-02-27T00:29:19.977Z,95823
2023-02-27T00:30:19.985Z,95812
2023-02-27T00:31:20.062Z,95809
2023-02-27T00:33:20.046Z,95814
2023-02-27T00:34:19.990Z,95824
2023-02-27T00:35:19.994Z,95805
2023-02-27T00:36:20.035Z,95812
2023-02-27T00:37:20.029Z,95824
2023-02-27T00:38:20.075Z,95815
2023-02-27T00:40:20.014Z,95812
2023-02-27T00:41:20.033Z,95824
2023-02-27T00:42:20.015Z,95824
2023-02-27T00:43:20.003Z,95814
2023-02-27T00:44:20.005Z,95814
2023-02-27T00:45:20.021Z,95821
2023-02-27T00:46:20.101Z,95812
2023-02-27T00:47:20.062Z,95827
2023-02-27T00:48:20.056Z,95823
2023-02-27T00:49:20.085Z,95822
2023-02-27T00:50:20.051Z,95822
2023-02-27T00:51:20.058Z,95824
2023-02-27T00:52:20.050Z,95830
2023-02-27T00:53:20.024Z,95833
2023-02-27T00:54:20.040Z,95834
2023-02-27T00:55:20.076Z,95824
2023-02-27T00:56:20.124Z,95824
2023-02-27T00:57:20.102Z,95843
2023-02-27T00:58:20.046Z,95830
2023-02-27T00:59:20.080Z,95830
2023-02-27T01:00:20.050Z,95831
2023-02-27T01:01:20.089Z,95836
2023-02-27T01:02:20.166Z,95838
2023-02-27T01:03:20.053Z,95825
2023-02-27T01:04:20.058Z,95821
2023-02-27T01:05:20.166Z,95842
2023-02-27T01:07:20.110Z,95824
2023-02-27T01:08:20.067Z,95828
2023-02-27T01:09:20.099Z,95838
2023-02-27T01:10:20.077Z,95838
2023-02-27T01:11:20.118Z,95828
2023-02-27T01:12:20.144Z,95833
2023-02-27T01:13:20.142Z,95832
2023-02-27T01:14:20.087Z,95824
2023-02-27T01:15:20.174Z,95824
2023-02-27T01:16:20.132Z,95822
2023-02-27T01:17:20.082Z,95822
2023-02-27T01:18:20.109Z,95822
2023-02-27T01:19:20.258Z,95821
2023-02-27T01:20:20.092Z,95823
2023-02-27T01:22:20.148Z,95828
2023-02-27T01:23:20.109Z,95820
2023-02-27T01:24:20.170Z,95825
2023-02-27T01:25:20.131Z,95824
2023-02-27T01:26:20.159Z,95821
2023-02-27T01:27:20.173Z,95815
2023-02-27T01:28:20.122Z,95815
2023-02-27T01:29:20.162Z,95816
2023-02-27T01:30:20.156Z,95816
2023-02-27T01:31:20.223Z,95818
2023-02-27T01:32:20.310Z,95818
2023-02-27T01:33:20.166Z,95815
2023-02-27T01:34:20.191Z,95812
2023-02-27T01:35:20.182Z,95807
2023-02-27T01:36:20.144Z,95807
2023-02-27T01:37:20.153Z,95810
2023-02-27T01:38:20.145Z,95810
2023-02-27T01:39:20.201Z,95808
2023-02-27T01:40:20.179Z,95807
2023-02-27T01:41:20.231Z,95806
2023-02-27T01:42:20.169Z,95800
2023-02-27T01:44:20.231Z,95804
2023-02-27T01:45:20.168Z,95803
2023-02-27T01:46:20.234Z,95802
2023-02-27T01:47:20.231Z,95805
2023-02-27T01:48:20.208Z,95796
2023-02-27T01:49:20.231Z,95804
2023-02-27T01:50:20.177Z,95806
2023-02-27T01:51:20.229Z,95806
2023-02-27T01:52:20.165Z,95805
2023-02-27T01:53:20.181Z,95805
2023-02-27T01:54:20.186Z,95800
2023-02-27T01:55:20.184Z,95816
2023-02-27T01:56:20.247Z,95808
2023-02-27T01:57:20.238Z,95812
2023-02-27T01:59:20.236Z,95805
2023-02-27T02:00:20.273Z,95803
2023-02-27T02:01:20.318Z,95803
2023-02-27T02:02:20.286Z,95796
2023-02-27T02:03:20.239Z,95807
2023-02-27T02:04:20.219Z,95807
2023-02-27T02:05:20.223Z,95818
2023-02-27T02:06:20.197Z,95818
2023-02-27T02:07:20.218Z,95798
2023-02-27T02:08:20.265Z,95805
2023-02-27T02:09:20.256Z,95800
2023-02-27T02:10:20.261Z,95800
2023-02-27T02:11:20.244Z,95796
2023-02-27T02:12:20.240Z,95796
2023-02-27T02:14:20.242Z,95800
2023-02-27T02:15:20.279Z,95796
2023-02-27T02:16:20.272Z,95797
2023-02-27T02:17:20.253Z,95800
2023-02-27T02:18:20.295Z,95789
2023-02-27T02:19:20.247Z,95801
2023-02-27T02:20:20.239Z,95801
2023-02-27T02:21:20.253Z,95801
2023-02-27T02:22:20.277Z,95806
2023-02-27T02:23:20.266Z,95793
2023-02-27T02:24:20.285Z,95797
2023-02-27T02:25:20.248Z,95797
2023-02-27T02:26:20.258Z,95799
2023-02-27T02:27:20.293Z,95803
2023-02-27T02:28:20.313Z,95800
2023-02-27T02:29:20.295Z,95800
2023-02-27T02:30:20.303Z,95797
2023-02-27T02:31:20.384Z,95803
2023-02-27T02:32:20.343Z,95801
2023-02-27T02:33:20.297Z,95801
2023-02-27T02:34:20.338Z,95797
2023-02-27T02:35:20.275Z,95800
2023-02-27T02:36:20.284Z,95800
2023-02-27T02:37:20.330Z,95803
2023-02-27T02:38:20.338Z,95814
2023-02-27T02:39:20.286Z,95814
2023-02-27T02:40:20.347Z,95794
2023-02-27T02:42:20.341Z,95798
2023-02-27T02:43:20.325Z,95798
2023-02-27T02:44:20.348Z,95808
2023-02-27T02:45:20.317Z,95797
2023-02-27T02:46:20.364Z,95805
2023-02-27T02:47:20.315Z,95797
2023-02-27T02:48:20.327Z,95797
2023-02-27T02:49:20.314Z,95791
2023-02-27T02:50:20.318Z,95791
2023-02-27T02:51:20.337Z,95796
2023-02-27T02:52:20.339Z,95806
2023-02-27T02:53:20.350Z,95799
2023-02-27T02:54:20.316Z,95799
2023-02-27T02:55:20.363Z,95799
2023-02-27T02:56:20.316Z,95799
2023-02-27T02:57:20.339Z,95811
2023-02-27T02:58:20.355Z,95806
2023-02-27T02:59:20.344Z,95803
2023-02-27T03:00:20.341Z,95802
2023-02-27T03:01:20.366Z,95802
2023-02-27T03:02:20.332Z,95808
2023-02-27T03:03:20.389Z,95808
2023-02-27T03:04:20.400Z,95801
2023-02-27T03:05:20.399Z,95818
2023-02-27T03:07:20.447Z,95809
2023-02-27T03:08:20.387Z,95810
2023-02-27T03:10:20.361Z,95809
2023-02-27T03:11:20.414Z,95809
2023-02-27T03:12:20.414Z,95814
2023-02-27T03:13:20.375Z,95813
2023-02-27T03:14:20.383Z,95818
2023-02-27T03:15:20.363Z,95813
2023-02-27T03:16:20.413Z,95818
2023-02-27T03:17:20.419Z,95823
2023-02-27T03:18:20.433Z,95832
2023-02-27T03:19:20.383Z,95832
2023-02-27T03:20:20.582Z,95828
2023-02-27T03:21:20.449Z,95821
2023-02-27T03:22:20.439Z,95829
2023-02-27T03:23:20.412Z,95832
2023-02-27T03:24:20.450Z,95825
2023-02-27T03:25:20.430Z,95824
2023-02-27T03:26:20.448Z,95824
2023-02-27T03:27:20.446Z,95822
2023-02-27T03:28:20.455Z,95824
2023-02-27T03:29:20.475Z,95833
2023-02-27T03:30:20.407Z,95833
2023-02-27T03:31:20.523Z,95828
2023-02-27T03:32:20.415Z,95831
2023-02-27T03:33:20.405Z,95831
2023-02-27T03:34:20.406Z,95826
2023-02-27T03:35:20.430Z,95831
2023-02-27T03:36:20.408Z,95818
2023-02-27T03:37:20.444Z,95824
2023-02-27T03:38:20.443Z,95825
2023-02-27T03:39:20.474Z,95844
2023-02-27T03:40:20.480Z,95835
2023-02-27T03:41:20.468Z,95835
2023-02-27T03:42:20.427Z,95835
2023-02-27T03:43:20.473Z,95831
2023-02-27T03:44:20.476Z,95837
2023-02-27T03:45:20.436Z,95831
2023-02-27T03:46:20.471Z,95831
2023-02-27T03:47:20.443Z,95833
2023-02-27T03:48:20.455Z,95842
2023-02-27T03:49:20.484Z,95831
2023-02-27T03:50:20.485Z,95853
2023-02-27T03:51:20.460Z,95837
2023-02-27T03:52:20.516Z,95837
2023-02-27T03:53:20.479Z,95837
2023-02-27T03:54:20.463Z,95847
2023-02-27T03:55:20.477Z,95830
2023-02-27T03:56:20.452Z,95846
2023-02-27T03:57:20.524Z,95845
2023-02-27T03:58:20.488Z,95846
2023-02-27T03:59:20.562Z,95845
2023-02-27T04:00:20.502Z,95846
2023-02-27T04:01:20.495Z,95846
2023-02-27T04:02:20.465Z,95846
2023-02-27T04:03:20.494Z,95838
2023-02-27T04:04:20.553Z,95843
2023-02-27T04:05:20.519Z,95845
2023-02-27T04:06:20.503Z,95845
2023-02-27T04:07:20.541Z,95854
2023-02-27T04:08:20.563Z,95844
2023-02-27T04:09:20.573Z,95844
2023-02-27T04:10:20.521Z,95845
2023-02-27T04:11:20.551Z,95850
2023-02-27T04:12:20.499Z,95848
2023-02-27T04:13:20.564Z,95851
2023-02-27T04:15:20.546Z,95854
2023-02-27T04:17:20.555Z,95847
2023-02-27T04:18:20.566Z,95856
2023-02-27T04:19:20.557Z,95856
2023-02-27T04:20:20.537Z,95856
2023-02-27T04:21:20.569Z,95854
2023-02-27T04:22:20.552Z,95856
2023-02-27T04:23:20.546Z,95869
2023-02-27T04:24:20.560Z,95853
2023-02-27T04:26:20.587Z,95849
2023-02-27T04:28:20.561Z,95855
2023-02-27T04:29:20.557Z,95855
2023-02-27T04:30:20.635Z,95863
2023-02-27T04:31:20.634Z,95859
2023-02-27T04:32:20.698Z,95855
2023-02-27T04:33:20.567Z,95858
2023-02-27T04:34:20.568Z,95872
2023-02-27T04:35:20.607Z,95858
2023-02-27T04:36:20.612Z,95864
2023-02-27T04:37:20.580Z,95862
2023-02-27T04:38:20.553Z,95862
2023-02-27T04:39:20.611Z,95863
2023-02-27T04:40:20.563Z,95863
2023-02-27T04:41:20.627Z,95866
2023-02-27T04:42:20.627Z,95868
2023-02-27T04:43:20.583Z,95864
2023-02-27T04:44:20.584Z,95864
2023-02-27T04:45:20.586Z,95867
2023-02-27T04:46:20.640Z,95863
2023-02-27T04:47:20.631Z,95861
2023-02-27T04:48:20.694Z,95866
2023-02-27T04:49:20.607Z,95866
2023-02-27T04:50:20.651Z,95866
2023-02-27T04:51:20.653Z,95860
2023-02-27T04:52:20.643Z,95859
2023-02-27T04:53:20.674Z,95864
2023-02-27T04:54:20.675Z,95864
2023-02-27T04:55:20.628Z,95864
2023-02-27T04:56:20.625Z,95859
2023-02-27T04:57:20.610Z,95871
2023-02-27T04:58:20.605Z,95881
2023-02-27T04:59:20.656Z,95881
2023-02-27T05:01:20.637Z,95874
2023-02-27T05:02:20.748Z,95885
2023-02-27T05:03:20.616Z,95885
2023-02-27T05:04:20.640Z,95872
2023-02-27T05:05:20.681Z,95870
2023-02-27T05:06:20.656Z,95890
2023-02-27T05:08:20.705Z,95878
2023-02-27T05:09:20.690Z,95876
2023-02-27T05:10:20.692Z,95878
2023-02-27T05:11:20.676Z,95872
2023-02-27T05:12:20.693Z,95879
2023-02-27T05:13:20.676Z,95879
2023-02-27T05:15:20.657Z,95869
2023-02-27T05:16:20.693Z,95876
2023-02-27T05:17:20.666Z,95865
2023-02-27T05:18:20.689Z,95874
2023-02-27T05:19:20.768Z,95874
2023-02-27T05:20:20.696Z,95874
2023-02-27T05:21:20.712Z,95868
2023-02-27T05:22:20.702Z,95873
2023-02-27T05:23:20.698Z,95873
2023-02-27T05:24:20.664Z,95885
2023-02-27T05:25:20.723Z,95881
2023-02-27T05:26:20.705Z,95882
2023-02-27T05:27:20.718Z,95877
2023-02-27T05:28:20.723Z,95883
2023-02-27T05:29:20.703Z,95879
2023-02-27T05:30:20.683Z,95874
2023-02-27T05:31:20.777Z,95874
2023-02-27T05:32:20.850Z,95874
2023-02-27T05:33:20.699Z,95878
2023-02-27T05:34:20.715Z,95873
2023-02-27T05:35:20.740Z,95874
2023-02-27T05:36:20.703Z,95881
2023-02-27T05:37:20.720Z,95877
2023-02-27T05:38:20.764Z,95875
2023-02-27T05:39:20.999Z,95883
2023-02-27T05:40:20.752Z,95883
2023-02-27T05:41:20.745Z,95883
2023-02-27T05:42:20.733Z,95883
2023-02-27T05:43:20.738Z,95881
2023-02-27T05:44:20.718Z,95879
2023-02-27T05:45:20.727Z,95883
2023-02-27T05:46:20.899Z,95886
2023-02-27T05:47:20.781Z,95886
2023-02-27T05:48:20.770Z,95890
2023-02-27T05:49:20.777Z,95885
2023-02-27T05:50:20.761Z,95885
2023-02-27T05:51:20.761Z,95889
2023-02-27T05:52:20.766Z,95881
2023-02-27T05:53:20.730Z,95881
2023-02-27T05:54:20.736Z,95888
2023-02-27T05:55:20.815Z,95892
2023-02-27T05:57:20.814Z,95887
2023-02-27T05:58:20.798Z,95879
2023-02-27T05:59:20.764Z,95882
2023-02-27T06:00:20.790Z,95885
2023-02-27T06:01:20.787Z,95897
2023-02-27T06:02:20.804Z,95898
2023-02-27T06:03:20.782Z,95891
2023-02-27T06:04:20.815Z,95898
2023-02-27T06:05:20.816Z,95895
2023-02-27T06:06:20.814Z,95893
2023-02-27T06:07:20.851Z,95893
2023-02-27T06:08:20.778Z,95893
2023-02-27T06:09:20.815Z,95898
2023-02-27T06:10:20.855Z,95903
2023-02-27T06:11:20.804Z,95899
2023-02-27T06:12:20.785Z,95896
2023-02-27T06:13:20.826Z,95894
2023-02-27T06:14:20.814Z,95894
2023-02-27T06:15:20.819Z,95897
2023-02-27T06:16:20.839Z,95898
2023-02-27T06:17:20.809Z,95898
2023-02-27T06:18:20.831Z,95900
2023-02-27T06:21:20.834Z,95915
2023-02-27T06:22:20.804Z,95902
2023-02-27T06:23:20.917Z,95914
2023-02-27T06:25:20.830Z,95913
2023-02-27T06:26:20.841Z,95925
2023-02-27T06:27:20.870Z,95918
2023-02-27T06:28:20.904Z,95922
2023-02-27T06:29:20.829Z,95910
2023-02-27T06:30:20.819Z,95917
2023-02-27T06:31:20.884Z,95914
2023-02-27T06:32:20.904Z,95921
2023-02-27T06:33:20.865Z,95921
2023-02-27T06:34:20.877Z,95921
2023-02-27T06:35:20.841Z,95910
2023-02-27T06:36:20.952Z,95926
2023-02-27T06:37:20.895Z,95917
2023-02-27T06:38:20.883Z,95920
2023-02-27T06:40:20.905Z,95925
2023-02-27T06:41:20.893Z,95926
2023-02-27T06:42:20.912Z,95932
2023-02-27T06:43:20.887Z,95932
2023-02-27T06:44:20.854Z,95941
2023-02-27T06:45:20.851Z,95927
2023-02-27T06:46:20.915Z,95927
2023-02-27T06:47:20.862Z,95934
2023-02-27T06:48:20.922Z,95933
2023-02-27T06:49:20.900Z,95936
2023-02-27T06:50:20.856Z,95936
2023-02-27T06:51:20.928Z,95940
2023-02-27T06:52:20.905Z,95919
2023-02-27T06:53:20.872Z,95919
2023-02-27T06:54:20.974Z,95924
2023-02-27T06:55:20.965Z,95924
2023-02-27T06:57:20.894Z,95942
2023-02-27T06:58:20.886Z,95947
2023-02-27T06:59:20.904Z,95951
2023-02-27T07:00:20.927Z,95951
2023-02-27T07:01:20.958Z,95945
2023-02-27T07:02:20.909Z,95944
2023-02-27T07:03:20.934Z,95964
2023-02-27T07:04:21.048Z,95951
2023-02-27T07:05:20.905Z,95955
2023-02-27T07:06:20.901Z,95955
2023-02-27T07:07:34.214Z,95948
2023-02-27T07:08:20.953Z,95952
2023-02-27T07:09:20.920Z,95956
2023-02-27T07:10:20.941Z,95956
2023-02-27T07:11:20.944Z,95959
2023-02-27T07:12:21.004Z,95958
2023-02-27T07:13:20.975Z,95958
2023-02-27T07:14:20.945Z,95960
2023-02-27T07:15:20.928Z,95959
2023-02-27T07:16:20.931Z,95959
2023-02-27T07:17:20.953Z,95960
2023-02-27T07:18:20.945Z,95951
2023-02-27T07:19:20.940Z,95956
2023-02-27T07:20:20.940Z,95951
2023-02-27T07:21:20.960Z,95964
2023-02-27T07:22:21.007Z,95963
2023-02-27T07:23:20.965Z,95960
2023-02-27T07:24:20.973Z,95960
2023-02-27T07:25:20.965Z,95961
2023-02-27T07:26:20.971Z,95965
2023-02-27T07:27:21.059Z,95963
2023-02-27T07:28:21.054Z,95962
2023-02-27T07:29:20.969Z,95967
2023-02-27T07:30:20.992Z,95965
2023-02-27T07:31:21.033Z,95970
2023-02-27T07:32:21.108Z,95966
2023-02-27T07:33:20.989Z,95966
2023-02-27T07:34:21.014Z,95966
2023-02-27T07:35:20.974Z,95966
2023-02-27T07:36:21.043Z,95966
2023-02-27T07:37:21.046Z,95971
2023-02-27T07:38:21.018Z,95971
2023-02-27T07:39:21.043Z,95975
2023-02-27T07:40:20.994Z,95975
2023-02-27T07:41:29.843Z,95977
2023-02-27T07:42:21.025Z,95969
2023-02-27T07:43:21.052Z,95978
2023-02-27T07:44:21.050Z,95970
2023-02-27T07:45:21.031Z,95972
2023-02-27T07:46:21.086Z,95968
2023-02-27T07:47:21.017Z,95961
2023-02-27T07:48:21.044Z,95975
2023-02-27T07:49:21.015Z,95968
2023-02-27T07:50:21.072Z,95974
2023-02-27T07:51:21.015Z,95974
2023-02-27T07:52:21.060Z,95976
2023-02-27T07:53:21.045Z,95976
2023-02-27T07:54:21.053Z,95975
2023-02-27T07:55:21.062Z,95975
2023-02-27T07:56:21.050Z,95965
2023-02-27T07:57:21.051Z,95979
2023-02-27T07:58:21.056Z,95980
2023-02-27T07:59:21.099Z,95981
2023-02-27T08:00:21.134Z,95982
2023-02-27T08:01:21.082Z,95981
2023-02-27T08:02:21.243Z,95985
2023-02-27T08:03:21.091Z,95986
2023-02-27T08:04:21.132Z,95986
2023-02-27T08:05:21.083Z,95992
2023-02-27T08:06:21.103Z,96002
2023-02-27T08:07:21.064Z,95992
2023-02-27T08:08:21.079Z,95985
2023-02-27T08:09:21.084Z,95993
2023-02-27T08:10:21.153Z,95991
2023-02-27T08:11:21.064Z,95997
2023-02-27T08:12:21.099Z,95997
2023-02-27T08:13:42.218Z,95994
2023-02-27T08:14:21.119Z,95992
2023-02-27T08:15:21.122Z,95999
2023-02-27T08:16:21.096Z,95992
2023-02-27T08:17:21.153Z,95992
2023-02-27T08:18:21.138Z,95996
2023-02-27T08:19:21.084Z,95996
2023-02-27T08:20:21.073Z,95998
2023-02-27T08:21:21.092Z,96002
2023-02-27T08:22:21.767Z,95999
2023-02-27T08:23:21.134Z,95994
2023-02-27T08:26:21.138Z,95994
2023-02-27T08:27:21.124Z,96004
2023-02-27T08:28:21.109Z,96004
2023-02-27T08:29:21.103Z,96003
2023-02-27T08:30:21.147Z,96006
2023-02-27T08:31:21.199Z,96006
2023-02-27T08:32:21.197Z,95999
2023-02-27T08:33:21.151Z,96014
2023-02-27T08:34:21.118Z,96006
2023-02-27T08:35:21.156Z,96012
2023-02-27T08:36:21.155Z,96008
2023-02-27T08:37:21.151Z,96011
2023-02-27T08:38:21.164Z,96014
2023-02-27T08:39:21.161Z,96015
2023-02-27T08:40:21.131Z,96013
2023-02-27T08:41:21.146Z,96013
2023-02-27T08:43:21.173Z,96016
2023-02-27T08:44:21.149Z,96020
2023-02-27T08:45:21.174Z,96022
2023-02-27T08:46:21.185Z,96022
2023-02-27T08:47:21.192Z,96018
2023-02-27T08:48:21.177Z,96017
2023-02-27T08:49:21.750Z,96018
2023-02-27T08:52:23.450Z,96021
2023-02-27T08:53:21.193Z,96022
2023-02-27T08:54:21.188Z,96024
2023-02-27T08:55:21.201Z,96028
2023-02-27T08:56:21.245Z,96035
2023-02-27T08:57:21.224Z,96035
2023-02-27T08:58:21.188Z,96028
2023-02-27T08:59:21.185Z,96018
2023-02-27T09:00:21.217Z,96031
2023-02-27T09:01:21.170Z,96031
2023-02-27T09:02:21.216Z,96035
2023-02-27T09:03:21.269Z,96035
2023-02-27T09:04:21.239Z,96034
2023-02-27T09:06:21.242Z,96042
2023-02-27T09:07:21.247Z,96044
2023-02-27T09:08:21.195Z,96042
2023-02-27T09:09:21.240Z,96045
2023-02-27T09:10:21.235Z,96034
2023-02-27T09:11:21.242Z,96045
2023-02-27T09:13:21.260Z,96054
2023-02-27T09:14:21.217Z,96054
2023-02-27T09:15:21.209Z,96057
2023-02-27T09:16:21.299Z,96054
2023-02-27T09:17:21.221Z,96054
2023-02-27T09:18:21.259Z,96059
2023-02-27T09:19:21.259Z,96060
2023-02-27T09:20:21.272Z,96058
2023-02-27T09:21:21.300Z,96050
2023-02-27T09:22:21.297Z,96048
2023-02-27T09:23:21.313Z,96062
2023-02-27T09:24:21.264Z,96063
2023-02-27T09:25:21.263Z,96063
2023-02-27T09:26:28.954Z,96066
2023-02-27T09:27:21.246Z,96074
2023-02-27T09:28:21.262Z,96066
2023-02-27T09:29:21.357Z,96067
2023-02-27T09:30:21.276Z,96072
2023-02-27T09:31:21.330Z,96071
2023-02-27T09:33:21.301Z,96076
2023-02-27T09:34:21.309Z,96072
2023-02-27T09:35:21.326Z,96076
2023-02-27T09:36:21.306Z,96076
2023-02-27T09:37:21.309Z,96084
2023-02-27T09:38:21.260Z,96068
2023-02-27T09:39:21.292Z,96081
2023-02-27T09:40:21.351Z,96078
2023-02-27T09:41:21.273Z,96089
2023-02-27T09:42:21.337Z,96089
2023-02-27T09:43:21.316Z,96088
2023-02-27T09:44:30.644Z,96081
2023-02-27T09:45:21.354Z,96073
2023-02-27T09:46:21.426Z,96088
2023-02-27T09:47:21.349Z,96085
2023-02-27T09:48:21.320Z,96085
2023-02-27T09:49:21.336Z,96102
2023-02-27T09:50:21.372Z,96089
2023-02-27T09:51:21.328Z,96089
2023-02-27T09:52:21.370Z,96102
2023-02-27T09:53:21.330Z,96102
2023-02-27T09:54:21.294Z,96102
2023-02-27T09:55:21.311Z,96105
2023-02-27T09:56:21.308Z,96108
2023-02-27T09:57:21.376Z,96099
2023-02-27T09:58:21.382Z,96103
2023-02-27T09:59:21.314Z,96102
2023-02-27T10:00:21.414Z,96105
2023-02-27T10:01:21.333Z,96113
2023-02-27T10:02:21.361Z,96116
2023-02-27T10:03:21.410Z,96116
2023-02-27T10:04:21.376Z,96122
2023-02-27T10:05:21.330Z,96126
2023-02-27T10:06:21.342Z,96123
2023-02-27T10:07:21.388Z,96125
2023-02-27T10:08:21.353Z,96125
2023-02-27T10:09:21.346Z,96107
2023-02-27T10:10:21.362Z,96107
2023-02-27T10:11:21.383Z,96127
2023-02-27T10:12:21.400Z,96127
2023-02-27T10:13:21.386Z,96129
2023-02-27T10:14:21.386Z,96131
2023-02-27T10:15:21.420Z,96131
2023-02-27T10:16:21.475Z,96135
2023-02-27T10:17:21.412Z,96130
2023-02-27T10:18:28.308Z,96130
2023-02-27T10:19:21.391Z,96144
2023-02-27T10:20:21.395Z,96144
2023-02-27T10:22:21.426Z,96147
2023-02-27T10:23:21.481Z,96143
2023-02-27T10:24:21.382Z,96140
2023-02-27T10:25:31.196Z,96142
2023-02-27T10:26:21.426Z,96132
2023-02-27T10:27:21.412Z,96146
2023-02-27T10:28:21.422Z,96147
2023-02-27T10:29:21.400Z,96146
2023-02-27T10:30:29.192Z,96144
2023-02-27T10:31:21.513Z,96149
2023-02-27T10:32:21.539Z,96156
2023-02-27T10:33:21.458Z,96149
2023-02-27T10:34:21.446Z,96162
2023-02-27T10:35:21.443Z,96162
2023-02-27T10:36:32.974Z,96160
2023-02-27T10:37:21.515Z,96159
2023-02-27T10:38:21.460Z,96166
2023-02-27T10:39:21.429Z,96163
2023-02-27T10:40:21.448Z,96165
2023-02-27T10:41:21.434Z,96165
2023-02-27T10:42:21.417Z,96165
2023-02-27T10:43:21.425Z,96159
2023-02-27T10:44:21.424Z,96159
2023-02-27T10:45:21.448Z,96166
2023-02-27T10:46:21.522Z,96163
2023-02-27T10:47:21.483Z,96163
2023-02-27T10:48:21.493Z,96165
2023-02-27T10:49:21.504Z,96172
2023-02-27T10:50:21.479Z,96168
2023-02-27T10:51:21.497Z,96165
2023-02-27T10:52:21.493Z,96164
2023-02-27T10:53:21.514Z,96169
2023-02-27T10:54:21.505Z,96164
2023-02-27T10:55:21.498Z,96166
2023-02-27T10:56:21.443Z,96173
2023-02-27T10:57:21.488Z,96181
2023-02-27T10:58:21.536Z,96167
2023-02-27T10:59:21.517Z,96169
2023-02-27T11:00:21.476Z,96181
2023-02-27T11:01:21.519Z,96176
2023-02-27T11:02:21.527Z,96185
2023-02-27T11:03:21.514Z,96185
2023-02-27T11:04:21.503Z,96190
2023-02-27T11:05:21.483Z,96186
2023-02-27T11:06:21.497Z,96189
2023-02-27T11:07:21.530Z,96191
2023-02-27T11:08:21.509Z,96184
2023-02-27T11:09:21.480Z,96180
2023-02-27T11:10:21.516Z,96180
2023-02-27T11:11:21.503Z,96173
2023-02-27T11:12:21.518Z,96189
2023-02-27T11:13:21.592Z,96190
2023-02-27T11:14:21.498Z,96188
2023-02-27T11:15:21.514Z,96196
2023-02-27T11:16:21.489Z,96187
2023-02-27T11:17:21.484Z,96196
2023-02-27T11:18:21.514Z,96189
2023-02-27T11:19:21.557Z,96183
2023-02-27T11:20:21.516Z,96187
2023-02-27T11:21:21.557Z,96201
2023-02-27T11:22:21.520Z,96182
2023-02-27T11:23:21.514Z,96192
2023-02-27T11:24:21.548Z,96192
2023-02-27T11:25:21.670Z,96178
2023-02-27T11:26:21.509Z,96180
2023-02-27T11:27:21.546Z,96180
2023-02-27T11:28:21.551Z,96185
2023-02-27T11:30:21.576Z,96192
2023-02-27T11:31:21.598Z,96191
2023-02-27T11:33:21.548Z,96185
2023-02-27T11:34:21.559Z,96186
2023-02-27T11:35:21.559Z,96186
2023-02-27T11:36:21.634Z,96192
2023-02-27T11:37:21.567Z,96192
2023-02-27T11:38:21.564Z,96194
2023-02-27T11:39:21.555Z,96194
2023-02-27T11:40:21.561Z,96192
2023-02-27T11:41:21.605Z,96191
2023-02-27T11:42:21.566Z,96191
2023-02-27T11:43:21.570Z,96186
2023-02-27T11:44:34.115Z,96185
2023-02-27T11:46:04.290Z,96188
2023-02-27T11:46:46.871Z,96194
2023-02-27T11:47:21.596Z,96194
2023-02-27T11:48:21.579Z,96193
2023-02-27T11:49:21.598Z,96193
2023-02-27T11:50:21.628Z,96192
2023-02-27T11:51:21.647Z,96186
2023-02-27T11:53:21.589Z,96196
2023-02-27T11:54:21.632Z,96192
2023-02-27T11:55:21.618Z,96190
2023-02-27T11:56:21.671Z,96193
2023-02-27T11:57:21.642Z,96196
2023-02-27T11:58:21.601Z,96196
2023-02-27T11:59:21.693Z,96203
2023-02-27T12:00:21.596Z,96203
2023-02-27T12:01:21.616Z,96204
2023-02-27T12:02:21.696Z,96204
2023-02-27T12:03:21.665Z,96199
2023-02-27T12:04:21.756Z,96198
2023-02-27T12:05:21.626Z,96202
2023-02-27T12:06:21.631Z,96193
2023-02-27T12:07:21.635Z,96193
2023-02-27T12:08:21.649Z,96196
2023-02-27T12:09:21.645Z,96192
2023-02-27T12:10:21.617Z,96180
2023-02-27T12:11:21.642Z,96200
2023-02-27T12:12:21.640Z,96197
2023-02-27T12:13:21.643Z,96197
2023-02-27T12:14:21.746Z,96198
2023-02-27T12:15:21.637Z,96199
2023-02-27T12:16:21.796Z,96199
2023-02-27T12:17:21.718Z,96198
2023-02-27T12:18:21.645Z,96191
2023-02-27T12:19:21.645Z,96191
2023-02-27T12:20:21.696Z,96193
2023-02-27T12:21:21.696Z,96187
2023-02-27T12:22:21.683Z,96186
2023-02-27T12:23:21.709Z,96195
2023-02-27T12:24:21.653Z,96195
2023-02-27T12:25:21.657Z,96193
2023-02-27T12:26:21.678Z,96193
2023-02-27T12:27:21.676Z,96192
2023-02-27T12:28:21.664Z,96188
2023-02-27T12:29:21.707Z,96189
2023-02-27T12:30:21.673Z,96197
2023-02-27T12:31:21.756Z,96199
2023-02-27T12:32:21.775Z,96196
2023-02-27T12:33:21.662Z,96196
2023-02-27T12:34:21.731Z,96195
2023-02-27T12:35:21.692Z,96201
2023-02-27T12:36:21.700Z,96201
2023-02-27T12:37:21.724Z,96208
2023-02-27T12:38:21.725Z,96216
2023-02-27T12:39:21.700Z,96197
2023-02-27T12:40:21.718Z,96211
2023-02-27T12:41:21.705Z,96211
2023-02-27T12:42:21.708Z,96211
2023-02-27T12:43:21.708Z,96198
2023-02-27T12:44:21.756Z,96219
2023-02-27T12:45:21.701Z,96219
2023-02-27T12:46:21.732Z,96199
2023-02-27T12:47:21.767Z,96200
2023-02-27T12:48:21.706Z,96200
2023-02-27T12:49:21.693Z,96197
2023-02-27T12:50:21.713Z,96208
2023-02-27T12:51:21.712Z,96210
2023-02-27T12:52:21.726Z,96205
2023-02-27T12:53:21.749Z,96199
2023-02-27T12:54:21.719Z,96199
2023-02-27T12:55:21.801Z,96206
2023-02-27T12:56:21.774Z,96206
2023-02-27T12:57:21.747Z,96206
2023-02-27T12:58:21.775Z,96200
2023-02-27T12:59:21.740Z,96200
2023-02-27T13:00:21.799Z,96205
2023-02-27T13:01:21.804Z,96205
2023-02-27T13:02:21.751Z,96210
2023-02-27T13:03:21.744Z,96210
2023-02-27T13:05:21.790Z,96211
2023-02-27T13:06:21.844Z,96211
2023-02-27T13:07:21.775Z,96213
2023-02-27T13:08:21.758Z,96213
2023-02-27T13:09:21.749Z,96221
2023-02-27T13:10:21.785Z,96218
2023-02-27T13:11:21.819Z,96223
2023-02-27T13:12:21.784Z,96215
2023-02-27T13:13:21.771Z,96214
2023-02-27T13:14:21.782Z,96211
2023-02-27T13:15:21.808Z,96215
2023-02-27T13:16:21.828Z,96220
2023-02-27T13:17:21.768Z,96218
2023-02-27T13:18:23.577Z,96213
2023-02-27T13:19:21.836Z,96213
2023-02-27T13:20:21.786Z,96218
2023-02-27T13:21:21.831Z,96218
2023-02-27T13:22:21.806Z,96219
2023-02-27T13:23:21.840Z,96232
2023-02-27T13:24:24.084Z,96224
2023-02-27T13:25:21.826Z,96224
2023-02-27T13:26:21.823Z,96217
2023-02-27T13:27:21.857Z,96218
2023-02-27T13:28:21.863Z,96219
2023-02-27T13:29:21.849Z,96222